Terminal Aerodrome Forecast
Issued by NWS

Current Version | Previous Version | Text Only | Print | Product List | Glossary Off
Versions: 1 2 3 4 5 6 7 8 9 10 11 12 13 14 15 16 17 18 19 20 21 22 23 24 25 26 27

411
FTUS41 KRLX 040532
TAFCKB
TAF
KCKB 040532Z 0406/0506 00000KT P6SM SCT030 BKN050 OVC080
     FM040800 00000KT 5SM BR BKN015
     FM041400 VRB03KT P6SM BKN025=

USA.gov is the U.S. government's official web portal to all federal, state and local government web resources and services.